Time;durP1;ratioP1;P1;durP2;ratioP2;P2;SDS_P1;SDS_P2;PMS_P1;PMS_P2;Temp;Humidity;BMP_temperature;BMP_pressure;BME280_temperature;BME280_humidity;BME280_pressure;Samples;Min_cycle;Max_cycle;Signal;HPM_P1;HPM_P2
2022/03/20 00:01:22;;;;;;;25.13;20.57;;;4.00;99.90;;;;;;5013228;28;20486;-46
2022/03/20 00:03:49;;;;;;;30.37;20.67;;;4.20;99.90;;;;;;5013402;28;20445;-44
2022/03/20 00:06:15;;;;;;;28.50;21.30;;;3.90;99.90;;;;;;5011571;28;21050;-45
2022/03/20 00:08:44;;;;;;;25.83;22.30;;;3.90;99.90;;;;;;5013465;28;20482;-45
2022/03/20 00:11:11;;;;;;;24.97;20.93;;;3.80;99.90;;;;;;5012954;28;20522;-47
2022/03/20 00:13:39;;;;;;;28.73;20.80;;;3.90;99.90;;;;;;5013416;28;20447;-48
2022/03/20 00:16:06;;;;;;;25.70;21.30;;;3.70;99.90;;;;;;5013375;28;20471;-45
2022/03/20 00:18:33;;;;;;;28.43;20.57;;;3.80;99.90;;;;;;5013142;28;20483;-45
2022/03/20 00:21:01;;;;;;;25.10;18.67;;;3.90;99.90;;;;;;5013087;28;20918;-50
2022/03/20 00:23:28;;;;;;;25.03;19.53;;;4.10;99.90;;;;;;5013172;28;20886;-48
2022/03/20 00:25:58;;;;;;;14.80;12.73;;;4.10;99.90;;;;;;5012760;28;20570;-45
2022/03/20 00:28:26;;;;;;;29.00;19.13;;;4.30;99.90;;;;;;5013141;28;20554;-46
2022/03/20 00:30:54;;;;;;;28.20;20.90;;;4.30;99.90;;;;;;5012746;28;20504;-45
2022/03/20 00:33:21;;;;;;;25.07;19.83;;;3.90;99.90;;;;;;5012841;28;20987;-46
2022/03/20 00:35:48;;;;;;;25.23;20.50;;;3.40;99.90;;;;;;5012531;28;20494;-45
2022/03/20 00:38:15;;;;;;;18.27;14.50;;;3.30;99.90;;;;;;5012839;28;21039;-45
2022/03/20 00:40:43;;;;;;;24.47;18.60;;;3.40;99.90;;;;;;5012433;28;20528;-45
2022/03/20 00:43:11;;;;;;;27.20;18.80;;;3.80;99.90;;;;;;5012574;28;20808;-47
2022/03/20 00:45:39;;;;;;;17.83;13.60;;;3.90;99.90;;;;;;5012458;28;20481;-44
2022/03/20 00:48:07;;;;;;;21.40;17.00;;;4.00;99.90;;;;;;5011623;28;20846;-50
2022/03/20 00:50:35;;;;;;;23.67;18.63;;;4.10;99.90;;;;;;5012559;28;20445;-47
2022/03/20 00:53:02;;;;;;;22.00;16.03;;;4.10;99.90;;;;;;5012584;28;20975;-50
2022/03/20 00:55:29;;;;;;;17.30;13.57;;;4.30;99.90;;;;;;5012542;28;20951;-46
2022/03/20 00:57:57;;;;;;;12.93;10.63;;;4.30;99.90;;;;;;5012466;28;20453;-50
2022/03/20 01:00:25;;;;;;;14.87;11.60;;;4.50;99.90;;;;;;5012233;28;20492;-45
2022/03/20 01:02:52;;;;;;;17.00;11.70;;;4.60;99.90;;;;;;5012645;28;20474;-45
2022/03/20 01:05:19;;;;;;;21.77;15.00;;;4.70;99.90;;;;;;5011971;28;20566;-45
2022/03/20 01:07:46;;;;;;;17.00;13.80;;;4.70;99.90;;;;;;5068818;22;20519;-44
2022/03/20 01:10:13;;;;;;;14.57;12.20;;;4.70;99.90;;;;;;5011365;28;20971;-46
2022/03/20 01:12:41;;;;;;;15.63;13.20;;;4.80;99.90;;;;;;5012626;28;20467;-43
2022/03/20 01:15:10;;;;;;;13.47;9.60;;;4.90;99.90;;;;;;5011944;28;20454;-45
2022/03/20 01:17:38;;;;;;;12.40;10.10;;;5.00;95.70;;;;;;5012261;28;20498;-44
2022/03/20 01:20:09;;;;;;;13.77;10.70;;;5.20;97.10;;;;;;5012180;28;20529;-45
2022/03/20 01:22:37;;;;;;;13.40;10.80;;;5.30;98.30;;;;;;5012152;28;20447;-44
2022/03/20 01:25:06;;;;;;;16.13;11.83;;;5.30;98.40;;;;;;5011990;28;20450;-44
2022/03/20 01:27:33;;;;;;;15.50;12.27;;;5.20;98.50;;;;;;5011734;28;21006;-45
2022/03/20 01:30:00;;;;;;;16.20;13.03;;;5.10;98.30;;;;;;5011868;28;20482;-47
2022/03/20 01:32:28;;;;;;;13.40;11.60;;;4.80;99.50;;;;;;5012135;28;20526;-44
2022/03/20 01:34:56;;;;;;;15.50;11.80;;;4.40;99.90;;;;;;5011547;28;20866;-45
2022/03/20 01:37:23;;;;;;;14.33;11.80;;;4.50;99.70;;;;;;5011866;28;20497;-44
2022/03/20 01:39:52;;;;;;;13.67;11.10;;;4.70;99.30;;;;;;5011630;28;20471;-44
2022/03/20 01:42:19;;;;;;;14.47;11.00;;;4.80;98.50;;;;;;5011743;28;20483;-44
2022/03/20 01:44:46;;;;;;;12.13;9.50;;;4.90;98.10;;;;;;5011980;28;20467;-44
2022/03/20 01:47:13;;;;;;;12.47;9.50;;;5.00;96.40;;;;;;5011541;28;20942;-44
2022/03/20 01:49:40;;;;;;;12.20;9.00;;;5.20;93.90;;;;;;5011320;28;20479;-45
2022/03/20 01:52:13;;;;;;;12.60;10.23;;;5.30;93.70;;;;;;5011904;28;20457;-44
2022/03/20 01:54:42;;;;;;;16.07;12.40;;;5.50;93.20;;;;;;5011756;28;20529;-45
2022/03/20 01:57:12;;;;;;;19.47;14.63;;;5.40;96.20;;;;;;5011597;28;20991;-44
2022/03/20 01:59:39;;;;;;;16.97;11.97;;;5.20;98.10;;;;;;5011045;28;20428;-44
2022/03/20 02:02:07;;;;;;;15.30;11.23;;;5.00;98.00;;;;;;5011523;28;20875;-44
2022/03/20 02:04:36;;;;;;;14.83;11.30;;;5.00;96.40;;;;;;5011588;28;20454;-45
2022/03/20 02:07:04;;;;;;;16.47;11.40;;;5.20;96.00;;;;;;5011199;28;20486;-44
2022/03/20 02:09:32;;;;;;;11.30;9.70;;;5.20;97.10;;;;;;5011279;28;20975;-46
2022/03/20 02:12:00;;;;;;;16.20;9.43;;;5.10;96.90;;;;;;5011592;28;20525;-45
2022/03/20 02:14:28;;;;;;;12.97;8.47;;;5.10;95.40;;;;;;5011680;28;20534;-46
2022/03/20 02:16:55;;;;;;;8.80;7.60;;;5.10;94.30;;;;;;5011356;28;20506;-44
2022/03/20 02:19:23;;;;;;;9.63;8.27;;;5.20;93.50;;;;;;5011296;28;20534;-44
2022/03/20 02:21:51;;;;;;;11.37;8.77;;;5.40;93.30;;;;;;5011351;28;20447;-45
2022/03/20 02:24:33;;;;;;;10.20;8.33;;;5.50;93.40;;;;;;5011415;28;20534;-44
2022/03/20 02:27:05;;;;;;;9.00;7.27;;;5.60;93.40;;;;;;5011293;28;20570;-45
2022/03/20 02:29:32;;;;;;;12.50;7.13;;;5.60;92.10;;;;;;5011279;28;20928;-47
2022/03/20 02:32:00;;;;;;;8.80;7.47;;;5.70;91.70;;;;;;5011180;28;20485;-45
2022/03/20 02:34:27;;;;;;;12.53;8.90;;;5.80;90.80;;;;;;5011029;28;20946;-45
2022/03/20 02:36:56;;;;;;;9.57;7.60;;;5.90;91.10;;;;;;5011122;28;20464;-44
2022/03/20 02:39:24;;;;;;;10.30;7.63;;;5.80;91.50;;;;;;5011120;28;20486;-45
2022/03/20 02:41:51;;;;;;;10.37;9.30;;;5.80;91.30;;;;;;5011348;28;20534;-46
2022/03/20 02:44:19;;;;;;;11.77;8.23;;;5.80;90.70;;;;;;5011188;28;20522;-44
2022/03/20 02:46:46;;;;;;;10.13;7.73;;;5.90;91.00;;;;;;5010845;28;20487;-44
2022/03/20 02:49:15;;;;;;;9.50;8.27;;;5.90;90.30;;;;;;5011213;28;20502;-44
2022/03/20 02:51:42;;;;;;;9.43;7.93;;;5.90;90.80;;;;;;5011273;28;20459;-45
2022/03/20 02:54:10;;;;;;;10.50;8.20;;;5.80;91.30;;;;;;5011292;28;20478;-44
2022/03/20 02:56:37;;;;;;;8.87;7.90;;;6.10;89.20;;;;;;5011067;28;20487;-45
2022/03/20 02:59:05;;;;;;;11.90;8.10;;;6.20;87.60;;;;;;5010949;28;20479;-44
2022/03/20 03:01:32;;;;;;;14.67;8.77;;;6.10;88.40;;;;;;5011019;28;20447;-44
2022/03/20 03:04:00;;;;;;;11.03;8.27;;;6.10;88.60;;;;;;5011160;28;20443;-44
2022/03/20 03:06:27;;;;;;;13.87;11.10;;;6.20;89.80;;;;;;5010550;28;20904;-44
2022/03/20 03:11:39;;;;;;;11.80;9.53;;;5.30;93.20;;;;;;5012103;28;20421;-44
2022/03/20 03:16:47;;;;;;;11.50;9.90;;;4.80;93.30;;;;;;5014216;28;20573;-46
2022/03/20 03:19:15;;;;;;;10.97;9.23;;;4.70;93.90;;;;;;5013995;28;20451;-44
2022/03/20 03:21:42;;;;;;;14.70;10.23;;;4.70;93.40;;;;;;5013931;28;20447;-44
2022/03/20 03:24:09;;;;;;;13.73;9.87;;;4.80;93.10;;;;;;5014517;28;20471;-44
2022/03/20 03:26:36;;;;;;;13.30;9.93;;;5.10;93.70;;;;;;5014113;28;20521;-44
2022/03/20 03:29:05;;;;;;;11.67;9.57;;;5.20;93.40;;;;;;5013971;28;20842;-45
2022/03/20 03:31:32;;;;;;;10.03;8.80;;;5.10;93.00;;;;;;5014032;28;20804;-44
2022/03/20 03:36:43;;;;;;;11.03;8.33;;;5.10;92.10;;;;;;5013756;28;21155;-44
2022/03/20 03:39:11;;;;;;;11.30;9.10;;;5.30;92.80;;;;;;5013537;28;20500;-46
2022/03/20 03:41:38;;;;;;;11.17;9.27;;;5.10;92.90;;;;;;5014132;28;20956;-44
2022/03/20 03:44:07;;;;;;;13.63;9.43;;;4.70;93.80;;;;;;5014044;28;20482;-46
2022/03/20 03:46:34;;;;;;;13.73;10.00;;;4.20;94.40;;;;;;5013914;28;20562;-44
2022/03/20 03:49:02;;;;;;;13.10;9.50;;;4.10;94.40;;;;;;5013584;28;20520;-45
2022/03/20 03:51:29;;;;;;;10.17;8.53;;;4.20;95.00;;;;;;5013567;28;20451;-44
2022/03/20 03:53:56;;;;;;;10.33;8.30;;;4.60;94.10;;;;;;5013695;28;20475;-44
2022/03/20 03:56:23;;;;;;;10.47;9.20;;;4.60;92.70;;;;;;5013573;28;20575;-44
2022/03/20 03:58:49;;;;;;;9.80;8.00;;;4.70;92.50;;;;;;5013556;28;20501;-46
2022/03/20 04:01:18;;;;;;;9.00;8.03;;;4.60;92.70;;;;;;5013557;28;20486;-44
2022/03/20 04:03:45;;;;;;;9.47;7.30;;;4.70;92.70;;;;;;5013731;28;20474;-44
2022/03/20 04:06:12;;;;;;;9.53;7.30;;;4.80;91.90;;;;;;5012851;28;20513;-43
2022/03/20 04:08:38;;;;;;;8.63;7.27;;;4.90;92.20;;;;;;5013306;28;20475;-44
2022/03/20 04:11:05;;;;;;;9.40;7.40;;;5.00;92.40;;;;;;5012885;28;20952;-44
2022/03/20 04:13:33;;;;;;;9.70;8.70;;;5.00;92.60;;;;;;5013463;28;20503;-47
2022/03/20 04:16:00;;;;;;;10.60;7.77;;;4.70;93.10;;;;;;5013366;28;20529;-44
2022/03/20 04:18:28;;;;;;;8.43;7.23;;;4.80;93.30;;;;;;5013440;28;20854;-44
2022/03/20 04:20:55;;;;;;;9.40;8.40;;;4.70;93.20;;;;;;5012796;28;20488;-46
2022/03/20 04:26:06;;;;;;;10.40;8.73;;;4.80;92.40;;;;;;5013088;28;20557;-44
2022/03/20 04:28:33;;;;;;;9.80;8.07;;;5.00;92.40;;;;;;5012801;28;20487;-44
2022/03/20 04:30:59;;;;;;;8.40;7.50;;;5.00;92.20;;;;;;5012365;28;21039;-46
2022/03/20 04:33:29;;;;;;;7.40;6.33;;;4.90;91.90;;;;;;5013175;28;20478;-46
2022/03/20 04:35:56;;;;;;;7.97;7.20;;;5.00;92.90;;;;;;5012687;28;20446;-45
2022/03/20 04:38:23;;;;;;;8.97;6.73;;;5.00;92.70;;;;;;5012766;28;20482;-44
2022/03/20 04:40:51;;;;;;;7.73;6.57;;;5.00;92.10;;;;;;5012396;28;20967;-44
2022/03/20 04:43:18;;;;;;;8.30;6.73;;;5.00;91.70;;;;;;5012642;28;20530;-43
2022/03/20 04:45:45;;;;;;;10.47;7.03;;;5.10;91.90;;;;;;5013016;28;20471;-45
2022/03/20 04:59:07;;;;;;;6.37;5.73;;;5.10;91.00;;;;;;5012254;28;20522;-44
2022/03/20 05:01:34;;;;;;;8.67;6.77;;;5.00;91.00;;;;;;5012649;28;20474;-44
2022/03/20 05:04:01;;;;;;;9.70;7.67;;;5.00;91.60;;;;;;5012380;28;20526;-44
2022/03/20 05:06:29;;;;;;;8.37;7.57;;;4.90;92.70;;;;;;5011834;28;20561;-45
2022/03/20 05:13:19;;;;;;;8.77;7.87;;;4.90;93.30;;;;;;5012384;28;20548;-44
2022/03/20 05:14:28;;;;;;;9.37;7.63;;;4.70;92.60;;;;;;5012113;28;20458;-44
2022/03/20 05:16:55;;;;;;;9.07;7.27;;;4.60;92.90;;;;;;5011996;28;20550;-44
2022/03/20 05:19:22;;;;;;;8.77;7.13;;;4.20;92.80;;;;;;5012049;28;20479;-44
2022/03/20 05:21:50;;;;;;;10.10;7.17;;;3.90;93.10;;;;;;5012057;28;21039;-47
2022/03/20 05:24:17;;;;;;;9.67;7.70;;;4.10;93.70;;;;;;5012059;28;20493;-46
2022/03/20 05:26:44;;;;;;;8.07;7.10;;;4.20;93.50;;;;;;5011960;28;20518;-44
2022/03/20 05:29:11;;;;;;;10.07;7.50;;;3.90;93.70;;;;;;5011922;28;20525;-44
2022/03/20 05:31:38;;;;;;;8.90;7.47;;;4.00;93.50;;;;;;5012019;28;20534;-46
2022/03/20 05:34:05;;;;;;;8.80;7.90;;;4.00;94.00;;;;;;5011372;28;20952;-44
2022/03/20 05:36:31;;;;;;;13.73;8.60;;;4.10;94.10;;;;;;5011211;28;20549;-45
2022/03/20 05:39:00;;;;;;;11.30;8.30;;;4.00;94.30;;;;;;5011732;28;20474;-44
2022/03/20 05:41:47;;;;;;;11.10;8.43;;;4.00;94.30;;;;;;5011608;28;20489;-44
2022/03/20 05:44:16;;;;;;;8.23;7.07;;;4.10;94.00;;;;;;5011686;28;20948;-44
2022/03/20 05:46:43;;;;;;;10.13;7.77;;;4.10;94.00;;;;;;5011932;28;20551;-44
2022/03/20 05:49:10;;;;;;;10.20;7.63;;;4.10;93.60;;;;;;5011694;28;20478;-44
2022/03/20 05:51:37;;;;;;;9.40;8.40;;;4.30;93.80;;;;;;5012052;28;20475;-44
2022/03/20 05:54:05;;;;;;;9.73;8.73;;;4.40;93.90;;;;;;5011655;28;20450;-44
2022/03/20 05:59:17;;;;;;;8.67;7.43;;;4.00;93.60;;;;;;5011497;28;20437;-44
2022/03/20 06:01:44;;;;;;;12.20;7.03;;;3.60;94.50;;;;;;5011432;28;20864;-44
2022/03/20 06:04:11;;;;;;;9.10;7.27;;;3.80;94.90;;;;;;5011589;28;20870;-44
2022/03/20 06:06:38;;;;;;;11.00;9.90;;;3.90;94.20;;;;;;5010966;28;20486;-44
2022/03/20 06:09:07;;;;;;;8.87;7.97;;;4.10;93.60;;;;;;5011226;28;20732;-44
2022/03/20 06:11:35;;;;;;;9.57;7.70;;;4.30;93.40;;;;;;5011665;28;20533;-44
2022/03/20 06:14:02;;;;;;;9.53;7.60;;;4.50;94.00;;;;;;5011599;28;20445;-44
2022/03/20 06:16:29;;;;;;;9.97;8.97;;;4.50;94.30;;;;;;5011482;28;20971;-44
2022/03/20 06:18:56;;;;;;;9.83;8.00;;;4.50;94.10;;;;;;5011196;28;20534;-44
2022/03/20 06:21:23;;;;;;;7.87;6.43;;;4.30;94.60;;;;;;5011375;28;20478;-44
2022/03/20 06:23:50;;;;;;;8.20;7.37;;;4.20;94.00;;;;;;5011360;28;20879;-46
2022/03/20 06:26:19;;;;;;;8.80;7.20;;;4.30;94.10;;;;;;5011333;28;20510;-45
2022/03/20 06:28:48;;;;;;;9.53;7.53;;;4.40;93.90;;;;;;5011455;28;20471;-44
2022/03/20 06:31:19;;;;;;;7.30;6.60;;;4.50;94.60;;;;;;5011215;28;20446;-44
2022/03/20 06:33:46;;;;;;;8.40;6.20;;;4.40;94.20;;;;;;5011358;28;20488;-44
2022/03/20 06:36:15;;;;;;;7.47;6.70;;;4.50;93.70;;;;;;5010990;28;20531;-45
2022/03/20 06:38:42;;;;;;;9.10;7.27;;;4.50;93.50;;;;;;5011205;28;20863;-45
2022/03/20 06:41:09;;;;;;;8.90;8.00;;;4.50;93.40;;;;;;5010897;28;20486;-44
2022/03/20 06:43:38;;;;;;;9.30;8.33;;;4.60;93.60;;;;;;5011014;28;20886;-45
2022/03/20 06:46:07;;;;;;;9.03;7.23;;;4.60;93.30;;;;;;5012992;28;20446;-45
2022/03/20 06:48:34;;;;;;;10.37;7.47;;;4.70;94.40;;;;;;5014922;28;20561;-45
2022/03/20 06:51:01;;;;;;;7.80;7.00;;;4.70;93.40;;;;;;5014219;28;20975;-44
2022/03/20 06:53:29;;;;;;;10.20;8.90;;;4.70;93.60;;;;;;5014799;28;20479;-44
2022/03/20 06:55:56;;;;;;;13.07;8.80;;;4.50;94.40;;;;;;5014604;28;20451;-44
2022/03/20 06:58:23;;;;;;;12.40;7.60;;;4.30;94.00;;;;;;5014912;28;20466;-46
2022/03/20 07:00:51;;;;;;;8.83;7.60;;;4.20;94.40;;;;;;5014497;28;20482;-44
2022/03/20 07:03:18;;;;;;;9.80;8.20;;;4.40;94.80;;;;;;5014531;28;20533;-45
2022/03/20 07:05:45;;;;;;;11.40;7.93;;;4.30;95.00;;;;;;5014111;28;21020;-46
2022/03/20 07:08:12;;;;;;;7.10;6.50;;;4.20;95.40;;;;;;5072972;22;20906;-44
2022/03/20 07:10:39;;;;;;;7.90;6.47;;;4.10;95.20;;;;;;5013610;28;20530;-44
2022/03/20 07:15:53;;;;;;;7.23;6.57;;;3.60;94.50;;;;;;5014826;28;20433;-45
2022/03/20 07:18:21;;;;;;;13.13;9.93;;;3.70;95.10;;;;;;5014415;28;20532;-45
2022/03/20 07:20:49;;;;;;;13.43;9.73;;;3.90;96.00;;;;;;5014082;28;20546;-49
2022/03/20 07:23:16;;;;;;;8.20;7.17;;;4.10;95.30;;;;;;5013962;28;20980;-44
2022/03/20 07:31:16;;;;;;;6.90;6.20;;;4.60;94.20;;;;;;5013800;28;20554;-45
2022/03/20 07:33:43;;;;;;;19.47;11.90;;;4.50;94.30;;;;;;5014330;28;20536;-44
2022/03/20 07:36:09;;;;;;;14.33;10.20;;;4.50;94.90;;;;;;5013748;28;20530;-45
2022/03/20 07:38:37;;;;;;;11.30;9.07;;;4.50;95.20;;;;;;5013993;28;20501;-44
2022/03/20 07:41:04;;;;;;;8.60;7.73;;;4.60;94.70;;;;;;5013985;28;20864;-46
2022/03/20 07:43:31;;;;;;;8.80;7.97;;;4.40;94.70;;;;;;5011896;28;20446;-58
2022/03/20 07:45:57;;;;;;;11.00;7.10;;;4.50;94.60;;;;;;5013570;28;20534;-49
2022/03/20 07:48:26;;;;;;;9.93;8.40;;;4.70;94.70;;;;;;5013791;28;20927;-45
2022/03/20 07:50:53;;;;;;;10.30;8.57;;;4.70;94.80;;;;;;5013583;28;20486;-45
2022/03/20 07:53:20;;;;;;;15.30;7.97;;;4.80;94.60;;;;;;5013417;28;20891;-45
2022/03/20 07:55:47;;;;;;;10.20;6.43;;;4.60;94.60;;;;;;5013588;28;20490;-47
2022/03/20 07:58:19;;;;;;;11.47;6.70;;;4.50;95.10;;;;;;5012755;28;20543;-45
2022/03/20 08:00:46;;;;;;;7.83;7.00;;;4.60;96.50;;;;;;5013384;28;20534;-45
2022/03/20 08:03:13;;;;;;;8.50;6.37;;;4.60;94.50;;;;;;5013118;28;20975;-45
2022/03/20 08:05:41;;;;;;;8.93;7.00;;;4.60;94.20;;;;;;5012931;28;20483;-45
2022/03/20 08:08:14;;;;;;;7.07;6.37;;;4.90;93.80;;;;;;5013113;28;20566;-45
2022/03/20 08:10:41;;;;;;;6.80;6.07;;;5.10;94.30;;;;;;5013236;28;20451;-45
2022/03/20 08:13:09;;;;;;;6.83;6.00;;;5.30;94.40;;;;;;5013359;28;20454;-45
2022/03/20 08:15:36;;;;;;;7.57;6.70;;;5.60;93.70;;;;;;5012988;28;20447;-45
2022/03/20 08:18:07;;;;;;;8.17;7.33;;;5.80;94.30;;;;;;5013163;28;20491;-45
2022/03/20 08:20:34;;;;;;;10.93;7.50;;;6.00;94.70;;;;;;5012804;28;20459;-45
2022/03/20 08:23:03;;;;;;;12.17;7.93;;;6.10;92.60;;;;;;5013487;28;20538;-45
2022/03/20 08:25:31;;;;;;;9.17;7.27;;;6.10;94.00;;;;;;5013058;28;20454;-50
2022/03/20 08:27:58;;;;;;;8.10;6.40;;;6.20;92.30;;;;;;5012939;28;20987;-45
2022/03/20 08:30:25;;;;;;;8.07;7.23;;;6.30;93.00;;;;;;5012728;28;20538;-46
2022/03/20 08:32:54;;;;;;;9.80;8.80;;;6.30;94.10;;;;;;5012719;28;20960;-45
2022/03/20 08:35:21;;;;;;;9.13;8.20;;;6.30;94.50;;;;;;5012436;28;20513;-45
2022/03/20 08:37:50;;;;;;;8.10;6.93;;;6.40;93.00;;;;;;5012840;28;20491;-45
2022/03/20 08:40:19;;;;;;;8.17;6.23;;;6.60;92.60;;;;;;5012371;28;20543;-45
2022/03/20 08:42:49;;;;;;;9.07;7.07;;;6.70;91.50;;;;;;5012754;28;20534;-45
2022/03/20 08:45:17;;;;;;;11.47;8.40;;;6.80;90.20;;;;;;5012851;28;20480;-45
2022/03/20 08:47:44;;;;;;;10.33;7.73;;;6.90;92.20;;;;;;5012581;28;20492;-50
2022/03/20 08:50:13;;;;;;;9.80;8.67;;;7.00;92.60;;;;;;5012371;28;20479;-46
2022/03/20 08:52:40;;;;;;;9.50;8.40;;;7.10;91.80;;;;;;5012283;28;20422;-45
2022/03/20 08:55:11;;;;;;;7.30;6.60;;;7.20;90.70;;;;;;5012270;28;20482;-45
2022/03/20 08:57:41;;;;;;;8.20;6.63;;;7.30;90.10;;;;;;5012783;28;20546;-45
2022/03/20 09:00:09;;;;;;;8.00;6.70;;;7.50;88.80;;;;;;5012159;28;20482;-45
2022/03/20 09:02:37;;;;;;;7.27;5.97;;;7.60;83.70;;;;;;5012367;28;20878;-45
2022/03/20 09:05:05;;;;;;;8.63;6.73;;;7.70;78.90;;;;;;5011906;28;20536;-47
2022/03/20 09:07:32;;;;;;;11.50;7.70;;;7.80;80.90;;;;;;5011958;28;20522;-46
2022/03/20 09:09:59;;;;;;;12.90;7.80;;;7.90;84.40;;;;;;5011291;28;20443;-45
2022/03/20 09:12:26;;;;;;;9.17;7.67;;;8.00;85.00;;;;;;5012516;28;20482;-48
2022/03/20 09:14:54;;;;;;;8.33;6.93;;;8.20;84.50;;;;;;5012195;28;20458;-46
2022/03/20 09:20:06;;;;;;;9.27;7.53;;;8.50;79.90;;;;;;5011452;28;20434;-45
2022/03/20 09:22:34;;;;;;;8.90;7.33;;;8.70;82.60;;;;;;5011866;28;20490;-47
2022/03/20 09:25:01;;;;;;;8.73;7.30;;;8.80;82.90;;;;;;5012053;28;20447;-45
2022/03/20 09:27:28;;;;;;;8.93;7.70;;;8.90;83.20;;;;;;5011954;28;20913;-45
2022/03/20 09:29:57;;;;;;;7.80;7.00;;;9.10;82.50;;;;;;5011577;28;20536;-45
2022/03/20 09:32:24;;;;;;;8.50;7.33;;;9.20;80.10;;;;;;5011573;28;20446;-46
2022/03/20 09:34:51;;;;;;;8.10;6.87;;;9.30;77.00;;;;;;5011570;28;20910;-46
2022/03/20 09:37:17;;;;;;;7.83;7.00;;;9.30;72.00;;;;;;5011408;28;20505;-46
2022/03/20 09:39:44;;;;;;;8.50;7.20;;;9.40;71.70;;;;;;5011678;28;20446;-45
2022/03/20 09:42:11;;;;;;;7.77;6.97;;;9.60;69.50;;;;;;5011730;28;20443;-49
2022/03/20 09:44:40;;;;;;;7.83;6.93;;;9.70;72.20;;;;;;5011560;28;20964;-45
2022/03/20 09:47:12;;;;;;;8.50;6.50;;;9.90;70.40;;;;;;5011588;28;20550;-45
2022/03/20 09:49:39;;;;;;;6.97;6.37;;;10.00;69.70;;;;;;5011203;28;20532;-46
2022/03/20 09:52:07;;;;;;;6.70;6.07;;;10.10;65.50;;;;;;5012033;28;20486;-49
2022/03/20 09:54:35;;;;;;;7.27;6.17;;;10.20;63.70;;;;;;5011596;28;20485;-48
2022/03/20 09:57:04;;;;;;;9.57;7.13;;;10.30;62.90;;;;;;5011732;28;20495;-46
2022/03/20 09:59:32;;;;;;;11.73;9.53;;;10.40;61.70;;;;;;5011235;28;20454;-46
2022/03/20 10:02:03;;;;;;;7.40;6.20;;;10.60;63.60;;;;;;5011311;28;20471;-45
2022/03/20 10:04:33;;;;;;;12.67;8.63;;;10.70;63.40;;;;;;5011491;28;20475;-46
2022/03/20 10:07:00;;;;;;;8.70;6.87;;;10.80;60.30;;;;;;5010846;28;20478;-46
2022/03/20 10:09:26;;;;;;;8.57;6.70;;;11.00;59.90;;;;;;5011535;28;20478;-46
2022/03/20 10:11:57;;;;;;;7.43;6.33;;;11.00;59.30;;;;;;5011786;28;20478;-46
2022/03/20 10:14:26;;;;;;;10.60;6.20;;;11.20;59.90;;;;;;5011376;28;20449;-46
2022/03/20 10:16:57;;;;;;;8.30;6.73;;;11.40;57.40;;;;;;5011385;28;20463;-46
2022/03/20 10:19:29;;;;;;;7.27;6.57;;;11.60;56.50;;;;;;5011039;28;20443;-47
2022/03/20 10:22:00;;;;;;;9.97;7.57;;;11.80;59.30;;;;;;5015151;28;20530;-45
2022/03/20 10:24:29;;;;;;;7.83;7.07;;;11.90;60.30;;;;;;5015667;28;20530;-45
2022/03/20 10:27:13;;;;;;;443.77;207.33;;;12.00;59.90;;;;;;5015435;28;20484;-45
2022/03/20 10:29:49;;;;;;;140.27;50.90;;;14.30;73.10;;;;;;5014877;28;20487;-45
2022/03/20 10:32:16;;;;;;;14.50;10.43;;;17.10;59.70;;;;;;5014998;28;20974;-46
2022/03/20 10:34:50;;;;;;;9.07;6.60;;;17.50;53.00;;;;;;5014783;28;20486;-49
2022/03/20 10:37:19;;;;;;;10.50;6.93;;;16.30;50.00;;;;;;5014797;28;21011;-47
2022/03/20 10:39:46;;;;;;;7.60;6.90;;;15.10;47.60;;;;;;5014865;28;20474;-46
2022/03/20 10:42:15;;;;;;;6.70;5.50;;;14.60;47.30;;;;;;5015073;28;20493;-48
2022/03/20 10:44:43;;;;;;;8.07;6.37;;;14.20;46.30;;;;;;5015391;28;20489;-46
2022/03/20 10:47:13;;;;;;;8.03;6.07;;;14.00;46.10;;;;;;5015082;28;20905;-46
2022/03/20 10:49:43;;;;;;;6.50;5.70;;;13.80;47.30;;;;;;5014393;28;20479;-48
2022/03/20 10:52:11;;;;;;;7.07;6.40;;;13.80;46.60;;;;;;5015047;28;20466;-46
2022/03/20 10:54:45;;;;;;;6.50;5.70;;;13.30;46.70;;;;;;5013570;28;20914;-47
2022/03/20 10:57:13;;;;;;;6.70;5.97;;;13.50;47.80;;;;;;5013459;28;20499;-46
2022/03/20 10:59:41;;;;;;;6.93;6.23;;;13.50;48.20;;;;;;5012989;28;20471;-51
2022/03/20 11:02:21;;;;;;;7.03;6.33;;;13.60;49.00;;;;;;5014232;28;20490;-49
2022/03/20 11:04:49;;;;;;;7.30;6.57;;;13.70;50.00;;;;;;5014601;28;20745;-49
2022/03/20 11:07:18;;;;;;;6.90;6.20;;;13.80;48.70;;;;;;5014116;28;21027;-45
2022/03/20 11:09:47;;;;;;;7.80;6.07;;;13.90;48.30;;;;;;5014224;28;20574;-46
2022/03/20 11:12:18;;;;;;;7.13;6.47;;;13.80;45.60;;;;;;5014608;28;20882;-46
2022/03/20 11:14:46;;;;;;;6.53;5.67;;;13.80;46.30;;;;;;5014359;28;20897;-46
2022/03/20 11:17:17;;;;;;;6.43;5.83;;;13.90;45.80;;;;;;5013421;28;20887;-49
2022/03/20 11:19:51;;;;;;;7.03;5.67;;;13.80;45.90;;;;;;5013994;28;20447;-50
2022/03/20 11:22:20;;;;;;;8.57;6.00;;;13.80;44.90;;;;;;5014336;28;20478;-50
2022/03/20 11:24:51;;;;;;;8.63;6.07;;;13.70;42.80;;;;;;5014478;28;21011;-46
2022/03/20 11:27:23;;;;;;;6.97;5.70;;;13.80;44.40;;;;;;5013937;28;20910;-47
2022/03/20 11:29:51;;;;;;;6.27;5.67;;;13.80;45.40;;;;;;5013879;28;20824;-46
2022/03/20 11:32:19;;;;;;;6.00;5.40;;;13.90;42.90;;;;;;5012908;28;20478;-48
2022/03/20 11:34:47;;;;;;;6.73;6.03;;;13.80;42.60;;;;;;5013952;28;20530;-46
2022/03/20 11:37:16;;;;;;;7.33;6.07;;;13.90;44.10;;;;;;5014323;28;20509;-46
2022/03/20 11:40:12;;;;;;;6.07;5.50;;;13.90;42.50;;;;;;5013973;28;20451;-47
2022/03/20 11:42:41;;;;;;;6.33;5.70;;;13.90;41.80;;;;;;5014099;28;20477;-46
2022/03/20 11:45:14;;;;;;;5.67;5.07;;;13.90;41.60;;;;;;5014018;28;20473;-46
2022/03/20 11:47:43;;;;;;;5.83;4.97;;;13.90;41.20;;;;;;5013444;28;20470;-50
2022/03/20 11:50:15;;;;;;;6.50;4.80;;;13.90;42.30;;;;;;5013557;28;20569;-47
2022/03/20 11:52:49;;;;;;;5.80;5.20;;;14.00;43.00;;;;;;5013739;28;20477;-46
2022/03/20 11:55:35;;;;;;;6.03;5.00;;;14.00;42.60;;;;;;5013719;28;20486;-50
2022/03/20 11:58:09;;;;;;;7.10;5.60;;;14.10;43.40;;;;;;5013570;28;20545;-49
2022/03/20 12:00:40;;;;;;;6.77;5.80;;;14.10;42.00;;;;;;5014500;28;20475;-49
2022/03/20 12:03:32;;;;;;;6.37;5.77;;;14.10;40.80;;;;;;5014440;28;20944;-46
2022/03/20 12:06:33;;;;;;;6.57;5.77;;;14.20;42.40;;;;;;5014728;28;20450;-46
2022/03/20 12:09:09;;;;;;;8.10;6.17;;;14.20;42.10;;;;;;4998163;28;20482;-45
2022/03/20 12:12:00;;;;;;;6.07;5.50;;;14.30;43.60;;;;;;5013835;28;20854;-46
2022/03/20 12:14:32;;;;;;;6.40;5.80;;;14.30;44.00;;;;;;5014326;28;20483;-46
2022/03/20 12:17:00;;;;;;;6.27;5.70;;;14.20;41.70;;;;;;5014442;28;20472;-49
2022/03/20 12:19:42;;;;;;;7.00;6.30;;;14.40;43.00;;;;;;5014164;28;20504;-47
2022/03/20 12:22:14;;;;;;;6.70;5.97;;;14.30;45.60;;;;;;5014065;28;20442;-46
2022/03/20 12:24:52;;;;;;;7.13;5.90;;;14.50;44.80;;;;;;5013336;28;20493;-46
2022/03/20 12:27:44;;;;;;;5.83;5.33;;;14.50;42.20;;;;;;5013925;28;20905;-46
2022/03/20 12:30:36;;;;;;;6.33;5.70;;;14.50;41.70;;;;;;5003685;28;20570;-44
2022/03/20 12:33:24;;;;;;;6.50;5.90;;;14.50;45.20;;;;;;5008056;28;20483;-53
2022/03/20 12:35:52;;;;;;;7.83;6.40;;;14.60;44.80;;;;;;5013183;28;20475;-46
2022/03/20 12:38:42;;;;;;;7.73;5.97;;;14.60;45.10;;;;;;5013360;28;20868;-49
2022/03/20 12:41:14;;;;;;;7.37;6.20;;;14.60;42.50;;;;;;5012768;28;20512;-45
2022/03/20 12:43:44;;;;;;;5.67;5.10;;;14.60;43.20;;;;;;5012847;28;20447;-46
2022/03/20 12:46:12;;;;;;;7.13;6.27;;;14.70;43.70;;;;;;5012932;28;20519;-47
2022/03/20 12:48:51;;;;;;;6.30;5.70;;;14.70;43.80;;;;;;5012509;28;20570;-46
2022/03/20 12:51:31;;;;;;;6.10;5.50;;;14.70;44.60;;;;;;5012545;28;20493;-46
2022/03/20 12:54:05;;;;;;;7.47;5.63;;;14.80;44.30;;;;;;5012535;28;20439;-51
2022/03/20 12:56:32;;;;;;;7.40;6.30;;;14.80;44.00;;;;;;5012569;28;20482;-46
2022/03/20 12:59:01;;;;;;;6.50;5.90;;;14.90;45.40;;;;;;5012480;28;20447;-44
2022/03/20 13:01:37;;;;;;;6.97;5.40;;;14.90;42.90;;;;;;5012551;28;20446;-46
2022/03/20 13:04:15;;;;;;;7.07;5.80;;;14.90;43.40;;;;;;5012404;28;20541;-46
2022/03/20 13:06:42;;;;;;;8.90;6.30;;;15.00;45.10;;;;;;5011626;28;20450;-45
2022/03/20 13:09:12;;;;;;;6.03;5.47;;;14.90;41.70;;;;;;5013509;28;20581;-47
2022/03/20 13:11:56;;;;;;;7.73;6.10;;;14.80;40.40;;;;;;5012274;28;20442;-46
2022/03/20 13:14:25;;;;;;;7.37;5.83;;;14.90;42.60;;;;;;5012312;28;20501;-48
2022/03/20 13:16:53;;;;;;;7.63;6.37;;;14.90;42.30;;;;;;5011533;28;20533;-46
2022/03/20 13:19:32;;;;;;;7.53;5.90;;;14.90;41.30;;;;;;5012048;28;20497;-45
2022/03/20 13:22:03;;;;;;;7.00;6.17;;;14.80;42.20;;;;;;5012160;28;20475;-46
2022/03/20 13:24:32;;;;;;;7.50;6.80;;;14.80;43.90;;;;;;5011891;28;20474;-49
2022/03/20 13:27:00;;;;;;;6.73;6.03;;;14.90;46.30;;;;;;5011718;28;20554;-46
2022/03/20 13:29:29;;;;;;;7.10;6.03;;;15.00;46.20;;;;;;5011583;28;21038;-46
2022/03/20 13:32:00;;;;;;;7.13;5.83;;;15.10;46.40;;;;;;5011514;28;20498;-46
2022/03/20 13:34:28;;;;;;;7.67;6.97;;;15.10;46.10;;;;;;5011905;28;20474;-46
2022/03/20 13:36:55;;;;;;;6.93;6.23;;;15.20;45.80;;;;;;5011728;28;20602;-49